METAR Data
IDs: Format: Raw Decoded Include TAF

Data at: 2241 UTC 25 Oct 2021

PANC 252153Z 07003KT 10SM FEW090 04/M01 A2906 RMK AO2 SLP840 T00391011
PANC 252053Z 05007KT 10SM CLR 04/M01 A2906 RMK AO2 SLP843 T00391011 58006
PANC 251953Z 00000KT 10SM FEW007 SCT090 BKN130 02/M01 A2907 RMK AO2 SLP846 T00171011
PANC 251853Z 11004KT 10SM VCFG FEW004 SCT120 BKN130 01/M01 A2907 RMK AO2 SLP847 VCFG E T00061011
PANC 251753Z 08003KT 10SM VCFG FEW004 SCT110 OVC130 01/M02 A2908 RMK AO2 SLP848 VCFG NE-E T00111017 10017 20006 55006
PANC 251653Z 03005KT 10SM VCFG FEW004 OVC110 01/M01 A2907 RMK AO2 SLP845 VCFG NE-E T00111011
PANC 251553Z 02007KT 10SM VCFG FEW004 BKN110 01/M01 A2908 RMK AO2 SLP849 VCFG NE-E T00111011
PANC 251453Z 36008KT 10SM VCFG FEW004 BKN100 02/M01 A2910 RMK AO2 SLP855 VCFG NE T00171011 58015
PANC 251353Z 03006KT 10SM FEW008 BKN100 BKN110 02/M01 A2912 RMK AO2 SLP861 T00171006
PANC 251253Z 01004KT 10SM FEW003 BKN100 01/M01 A2913 RMK AO2 SLP865 T00111006
PANC 251153Z 01005KT 10SM FEW003 BKN100 01/M01 A2914 RMK AO2 SLP870 I6000 T00061011 10039 20000 58019
PANC 251053Z 00000KT 10SM FEW100 00/M02 A2916 RMK AO2 SLP877 T00001017
PANC 250953Z 35006KT 10SM SCT140 01/M02 A2919 RMK AO2 SLP885 I1000 T00061017
PANC 250853Z 33004KT 10SM BCFG FEW003 BKN220 01/M01 A2920 RMK AO2 SLP889 BCFG SW T00111006 400890011 56009
PANC 250753Z 34007KT 10SM R07R/2200VP6000FT FEW001 BKN220 02/M01 A2921 RMK AO2 SLP893 T00171006
PANC 250653Z 00000KT 10SM BKN220 02/01 A2923 RMK AO2 SLP898 T00220006
PANC 250553Z 30003KT 10SM BKN200 04/01 A2925 RMK AO2 SLP905 T00390011 10089 20017 58020
PANC 250453Z 00000KT 10SM SCT090 BKN160 04/01 A2927 RMK AO2 SLP914 T00440006
PANC 250353Z 00000KT 10SM FEW030 SCT170 02/M01 A2929 RMK AO2 SLP921 T00221006
PANC 250253Z 15003KT 10SM FEW030 SCT120 03/M01 A2930 RMK AO2 SLP925 T00281006 58016
PANC 250153Z 05003KT 10SM FEW030 SCT120 07/01 A2932 RMK AO2 SLP930 T00720006
PANC 250053Z 10003KT 10SM FEW032 SCT120 08/02 A2934 RMK AO2 SLP937 T00830017
PANC 242353Z 13007KT 10SM FEW040 SCT065 BKN095 09/00 A2935 RMK AO2 SLP941 T00890000 10089 20039 58016
PANC 242253Z 14010KT 10SM FEW040 SCT065 BKN095 08/01 A2937 RMK AO2 PK WND 14026/2159 SLP947 T00830011
PANC 242153Z 13015G21KT 10SM SCT050 BKN070 BKN120 08/01 A2939 RMK AO2 SLP953 T00830011
PANC 242053Z 13009KT 10SM BKN080 BKN120 06/01 A2940 RMK AO2 SLP957 T00610011 58006
PANC 241953Z 10006KT 10SM BKN080 BKN120 04/01 A2941 RMK AO2 SLP959 T00440011
PANC 241853Z 11008KT 10SM FEW040 BKN080 BKN120 04/01 A2941 RMK AO2 SLP960 T00440011
PANC 241753Z 12007KT 090V150 10SM BKN080 BKN100 05/01 A2942 RMK AO2 SLP963 60000 T00500011 10067 20033 53007
PANC 241653Z 00000KT 10SM BKN060 OVC075 05/01 A2941 RMK AO2 SLP960 T00500011
PANC 241553Z 17006KT 10SM BKN070 OVC095 06/02 A2940 RMK AO2 SLP958 T00560017
PANC 241453Z 15005KT 10SM BKN075 OVC095 03/01 A2940 RMK AO2 SLP956 60000 T00330006 51011
PANC 241353Z 06005KT 10SM OVC060 04/01 A2939 RMK AO2 RAB30E44 SLP955 P0000 T00390006
PANC 241253Z 00000KT 10SM OVC070 04/01 A2938 RMK AO2 SLP950 T00390006
PANC 241153Z VRB03KT 10SM OVC070 04/01 A2936 RMK AO2 SLP945 T00440006 10056 20028 51023
PANC 241053Z 16004KT 10SM BKN095 BKN120 04/01 A2934 RMK AO2 CIG 080 N SLP938 T00390006